RJST(METAR)
05/28 02:00
METAR RJST 271700Z 12007KT 9999 FEW008 BKN015 BKN150 15/12 Q1013 RMK
1ST008 5SC015 6AC150 A2992=
戻る
トップページへ戻る
IMOC Co,.Ltd.